createdAt,value
2023-01-22T17:10:21.702Z,2.00
2023-01-22T17:12:48.995Z,1.67
2023-01-22T17:15:16.333Z,1.92
2023-01-22T17:17:43.772Z,2.15
2023-01-22T17:20:12.052Z,1.63
2023-01-22T17:22:39.498Z,1.50
2023-01-22T17:25:07.477Z,2.22
2023-01-22T17:27:36.213Z,2.10
2023-01-22T17:30:05.682Z,2.20
2023-01-22T17:32:33.106Z,1.70
2023-01-22T17:35:00.482Z,2.22
2023-01-22T17:37:27.838Z,2.00
2023-01-22T17:39:55.122Z,3.00
2023-01-22T17:42:22.471Z,2.20
2023-01-22T17:44:49.906Z,2.33
2023-01-22T17:47:17.322Z,2.45
2023-01-22T17:49:45.858Z,2.38
2023-01-22T17:52:14.567Z,2.30
2023-01-22T17:54:42.037Z,3.10
2023-01-22T17:57:10.807Z,2.35
2023-01-22T17:59:38.927Z,2.28
2023-01-22T18:02:06.344Z,2.35
2023-01-22T18:04:34.891Z,2.83
2023-01-22T18:07:03.492Z,2.95
2023-01-22T18:09:31.130Z,2.42
2023-01-22T18:11:59.434Z,2.50
2023-01-22T18:14:30.924Z,3.40
2023-01-22T18:16:58.227Z,2.38
2023-01-22T18:19:25.532Z,3.00
2023-01-22T18:21:53.039Z,2.83
2023-01-22T18:24:23.094Z,2.90
2023-01-22T18:26:50.747Z,2.42
2023-01-22T18:29:17.996Z,2.75
2023-01-22T18:31:45.298Z,2.80
2023-01-22T18:34:14.852Z,2.35
2023-01-22T18:36:42.639Z,3.03
2023-01-22T18:39:19.828Z,2.67
2023-01-22T18:41:47.443Z,2.60
2023-01-22T18:44:16.248Z,2.70
2023-01-22T18:46:47.514Z,3.03
2023-01-22T18:49:18.498Z,3.55
2023-01-22T18:51:46.266Z,3.00
2023-01-22T18:54:13.686Z,3.05
2023-01-22T18:56:41.691Z,3.08
2023-01-22T18:59:09.143Z,3.42
2023-01-22T19:01:38.263Z,3.47
2023-01-22T19:04:08.348Z,3.55
2023-01-22T19:06:38.171Z,3.40
2023-01-22T19:09:12.245Z,4.10
2023-01-22T19:11:42.209Z,4.28
2023-01-22T19:14:12.712Z,3.63
2023-01-22T19:16:40.076Z,3.58
2023-01-22T19:19:11.402Z,3.45
2023-01-22T19:21:41.157Z,3.78
2023-01-22T19:24:08.887Z,3.50
2023-01-22T19:26:37.392Z,3.75
2023-01-22T19:29:11.607Z,3.50
2023-01-22T19:31:42.045Z,4.25
2023-01-22T19:34:12.107Z,4.05
2023-01-22T19:36:40.229Z,3.72
2023-01-22T19:39:11.640Z,3.70
2023-01-22T19:41:40.171Z,4.50
2023-01-22T19:44:09.189Z,4.60
2023-01-22T19:46:40.601Z,4.57
2023-01-22T19:49:08.934Z,3.90
2023-01-22T19:51:36.421Z,4.50
2023-01-22T19:54:05.437Z,4.40
2023-01-22T19:56:35.368Z,5.30
2023-01-22T19:59:08.420Z,4.68
2023-01-22T20:01:36.910Z,4.68
2023-01-22T20:04:08.895Z,3.88
2023-01-22T20:06:36.314Z,3.95
2023-01-22T20:09:04.206Z,3.70
2023-01-22T20:11:31.673Z,4.47
2023-01-22T20:13:59.317Z,4.15
2023-01-22T20:16:28.668Z,4.03
2023-01-22T20:18:57.954Z,4.68
2023-01-22T20:21:27.017Z,4.50
2023-01-22T20:23:54.770Z,3.97
2023-01-22T20:26:22.548Z,4.28
2023-01-22T20:28:50.560Z,4.60
2023-01-22T20:31:23.150Z,3.75
2023-01-22T20:33:52.705Z,5.53
2023-01-22T20:36:21.804Z,4.25
2023-01-22T20:38:52.531Z,4.30
2023-01-22T20:41:21.345Z,4.23
2023-01-22T20:43:48.819Z,3.85
2023-01-22T20:46:22.097Z,3.85
2023-01-22T20:48:50.290Z,4.70
2023-01-22T20:51:26.529Z,5.95
2023-01-22T20:53:55.517Z,5.20
2023-01-22T20:56:28.398Z,4.50
2023-01-22T20:59:24.159Z,4.82
2023-01-22T21:01:51.573Z,5.03
2023-01-22T21:04:19.097Z,5.00
2023-01-22T21:06:47.457Z,4.10
2023-01-22T21:09:14.771Z,4.22
2023-01-22T21:11:42.798Z,4.38
2023-01-22T21:14:16.435Z,4.25
2023-01-22T21:16:44.816Z,3.80
2023-01-22T21:19:21.784Z,5.22
2023-01-22T21:21:50.283Z,3.80
2023-01-22T21:24:18.360Z,4.40
2023-01-22T21:26:45.857Z,4.60
2023-01-22T21:29:16.128Z,5.63
2023-01-22T21:31:44.470Z,4.50
2023-01-22T21:34:12.402Z,4.95
2023-01-22T21:36:42.676Z,4.82
2023-01-22T21:39:14.620Z,6.35
2023-01-22T21:41:43.125Z,4.63
2023-01-22T21:44:33.986Z,4.45
2023-01-22T21:47:02.372Z,5.00
2023-01-22T21:49:30.744Z,4.95
2023-01-22T21:52:01.808Z,4.38
2023-01-22T21:54:41.223Z,4.88
2023-01-22T21:57:13.531Z,4.72
2023-01-22T21:59:59.150Z,4.20
2023-01-22T22:02:27.192Z,4.15
2023-01-22T22:04:54.636Z,4.55
2023-01-22T22:07:21.967Z,4.63
2023-01-22T22:09:49.317Z,4.28
2023-01-22T22:12:16.682Z,3.53
2023-01-22T22:14:44.059Z,4.55
2023-01-22T22:17:11.406Z,5.07
2023-01-22T22:19:38.785Z,4.65
2023-01-22T22:22:06.104Z,4.30
2023-01-22T22:24:33.473Z,4.43
2023-01-22T22:27:00.792Z,4.03
2023-01-22T22:29:28.087Z,3.92
2023-01-22T22:31:55.777Z,4.03
2023-01-22T22:34:23.085Z,3.90
2023-01-22T22:36:50.397Z,4.30
2023-01-22T22:39:17.814Z,4.18
2023-01-22T22:41:45.236Z,4.28
2023-01-22T22:44:14.952Z,4.28
2023-01-22T22:46:42.309Z,4.45
2023-01-22T22:49:12.733Z,4.38
2023-01-22T22:51:41.917Z,4.60
2023-01-22T22:54:17.349Z,4.60
2023-01-22T22:56:46.247Z,4.50
2023-01-22T22:59:14.791Z,4.57
2023-01-22T23:01:42.244Z,4.55
2023-01-22T23:04:10.280Z,5.10
2023-01-22T23:06:37.961Z,4.70
2023-01-22T23:09:17.660Z,5.03
2023-01-22T23:11:46.009Z,4.60
2023-01-22T23:14:13.457Z,4.15
2023-01-22T23:16:42.653Z,4.30
2023-01-22T23:19:22.040Z,4.50
2023-01-22T23:21:51.921Z,4.15
2023-01-22T23:24:19.294Z,4.72
2023-01-22T23:26:47.204Z,4.40
2023-01-22T23:29:17.737Z,4.38
2023-01-22T23:31:45.504Z,3.83
2023-01-22T23:34:19.325Z,4.55
2023-01-22T23:36:48.063Z,4.30
2023-01-22T23:39:19.364Z,4.30
2023-01-22T23:41:46.755Z,4.18
2023-01-22T23:44:14.208Z,4.40
2023-01-22T23:46:41.957Z,4.63
2023-01-22T23:49:10.144Z,4.95
2023-01-22T23:51:41.210Z,4.50
2023-01-22T23:54:09.020Z,4.55
2023-01-22T23:56:36.571Z,4.68
2023-01-22T23:59:04.413Z,3.88
